Gaviota, California
Current Conditions -  °F | °C
As of 12:53 AM on Thursday 18 Dec 2014 (Local Time) from KSBA Reporting Station
Broken Clouds Broken Clouds  
Wind Chill: 51°   Ceiling: 7000
Heat Index: 51°   Visibility: 10mi
Dew Point: 43°   Wind: 0mph
Humidity: 74%   Direction: NA
Pressure: 30.1"   Gusts: NA
Location:  34.4816°N, 119.966°W
Report Text: KSBA 180853Z AUTO 00000KT 10SM BKN070 BKN090 11/06 A3010 RMK AO2 SLP192 T01060061 58002
Loading
Personal Weather Stations






























Interactive Weather Map New forecast layout! Learn more

10-Day Weather Forecast

Advertisements
Track Severe Weather on mobile